Time;durP1;ratioP1;P1;durP2;ratioP2;P2;SDS_P1;SDS_P2;PMS_P1;PMS_P2;Temp;Humidity;BMP_temperature;BMP_pressure;BME280_temperature;BME280_humidity;BME280_pressure;Samples;Min_cycle;Max_cycle;Signal;HPM_P1;HPM_P2
2023/01/25 00:58:34;;;;;;;4.83;4.33;;;2.30;99.90;;;;;;4937254;29;20054;-84
2023/01/25 01:01:01;;;;;;;5.38;4.20;;;2.30;99.90;;;;;;4905414;29;20363;-85
2023/01/25 01:03:28;;;;;;;5.18;3.97;;;2.30;99.90;;;;;;4876005;29;20065;-84
2023/01/25 01:06:02;;;;;;;5.82;4.22;;;2.30;99.90;;;;;;4891140;29;20155;-84
2023/01/25 01:08:32;;;;;;;5.50;4.18;;;2.40;99.90;;;;;;4892445;29;20061;-85
2023/01/25 01:11:21;;;;;;;6.75;4.30;;;2.40;99.90;;;;;;4891076;29;20051;-85
2023/01/25 01:13:48;;;;;;;5.65;4.65;;;2.40;99.90;;;;;;4907038;29;20051;-85
2023/01/25 01:16:15;;;;;;;5.80;4.40;;;2.40;99.90;;;;;;4875705;29;20176;-85
2023/01/25 01:18:43;;;;;;;5.40;4.22;;;2.40;99.90;;;;;;4923219;29;20363;-85
2023/01/25 01:21:11;;;;;;;5.15;4.18;;;2.40;99.90;;;;;;4894937;29;20456;-85
2023/01/25 01:23:38;;;;;;;5.88;4.50;;;2.40;99.90;;;;;;4910923;29;20048;-85
2023/01/25 01:26:06;;;;;;;6.15;4.47;;;2.50;99.90;;;;;;4894766;29;20055;-84
2023/01/25 01:28:34;;;;;;;5.32;4.05;;;2.50;99.90;;;;;;4910037;29;20090;-82
2023/01/25 01:31:13;;;;;;;6.18;4.72;;;2.60;99.90;;;;;;4894759;29;20051;-85
2023/01/25 01:33:40;;;;;;;5.53;4.35;;;2.60;99.90;;;;;;4909443;29;20286;-87
2023/01/25 01:36:08;;;;;;;5.00;4.00;;;2.60;99.90;;;;;;4910743;29;20456;-85
2023/01/25 01:38:35;;;;;;;5.82;4.70;;;2.60;99.90;;;;;;4909270;29;20622;-85
2023/01/25 01:41:01;;;;;;;5.65;4.22;;;2.70;99.90;;;;;;4894687;29;20047;-85
2023/01/25 01:43:31;;;;;;;5.28;4.30;;;2.70;99.90;;;;;;4910078;29;20067;-85
2023/01/25 01:46:15;;;;;;;5.15;4.00;;;2.70;99.90;;;;;;4926906;29;20122;-84
2023/01/25 01:48:44;;;;;;;6.05;4.45;;;2.70;99.90;;;;;;4880618;29;20052;-84
2023/01/25 01:51:34;;;;;;;5.22;4.20;;;2.70;99.90;;;;;;4924974;29;20054;-85
2023/01/25 01:54:10;;;;;;;5.22;4.45;;;2.70;99.90;;;;;;4939518;29;20079;-85
2023/01/25 01:56:59;;;;;;;4.88;3.60;;;2.70;99.90;;;;;;4907617;29;20493;-85
2023/01/25 01:59:30;;;;;;;5.88;4.50;;;2.70;99.90;;;;;;4940097;28;20055;-84
2023/01/25 02:01:57;;;;;;;5.57;4.43;;;2.70;99.90;;;;;;4945787;29;20043;-84
2023/01/25 02:04:25;;;;;;;6.13;4.50;;;2.70;99.90;;;;;;4928690;29;20058;-85
2023/01/25 02:07:10;;;;;;;5.65;4.30;;;2.80;99.90;;;;;;4944132;29;20079;-84
2023/01/25 02:09:37;;;;;;;6.28;4.75;;;2.80;99.90;;;;;;4944364;29;20047;-85
2023/01/25 02:12:04;;;;;;;5.78;4.30;;;2.80;99.90;;;;;;4943918;29;20058;-84
2023/01/25 02:14:31;;;;;;;5.93;4.55;;;2.80;99.90;;;;;;4960573;28;20468;-84
2023/01/25 02:16:58;;;;;;;4.20;3.60;;;2.80;99.90;;;;;;4959533;28;20043;-84
2023/01/25 02:19:36;;;;;;;6.10;4.93;;;2.80;99.90;;;;;;4944463;29;20447;-85
2023/01/25 02:22:06;;;;;;;5.70;4.15;;;2.80;99.90;;;;;;4944355;29;20537;-84
2023/01/25 02:24:33;;;;;;;5.55;4.25;;;2.70;99.90;;;;;;4928351;28;20175;-84
2023/01/25 02:26:59;;;;;;;5.72;4.32;;;2.70;99.90;;;;;;4958613;28;20439;-84
2023/01/25 02:29:26;;;;;;;6.47;4.85;;;2.70;99.90;;;;;;4927872;29;20151;-84
2023/01/25 02:32:02;;;;;;;6.03;4.57;;;2.60;99.90;;;;;;4961456;28;20722;-84
2023/01/25 02:34:29;;;;;;;6.25;4.57;;;2.60;99.90;;;;;;4934759;29;20134;-84
2023/01/25 02:36:55;;;;;;;5.88;4.32;;;2.60;99.90;;;;;;4949707;29;20055;-84
2023/01/25 02:39:25;;;;;;;5.88;4.80;;;2.60;99.90;;;;;;4951160;29;20106;-84
2023/01/25 02:41:52;;;;;;;4.68;3.85;;;2.60;99.90;;;;;;4919584;29;20055;-84
2023/01/25 02:44:24;;;;;;;5.05;4.28;;;2.60;99.90;;;;;;4951049;29;20087;-83
2023/01/25 02:46:51;;;;;;;5.95;4.43;;;2.70;99.90;;;;;;4962459;28;20139;-84
2023/01/25 02:49:18;;;;;;;4.53;3.60;;;2.70;99.90;;;;;;4933404;29;20460;-84
2023/01/25 02:51:48;;;;;;;5.22;3.60;;;2.70;99.90;;;;;;4951293;28;20146;-84
2023/01/25 02:54:15;;;;;;;5.10;3.88;;;2.80;99.90;;;;;;4967974;28;20127;-84
2023/01/25 02:56:42;;;;;;;5.38;3.88;;;2.80;99.90;;;;;;4936278;29;20142;-84
2023/01/25 02:59:09;;;;;;;4.82;3.90;;;2.70;99.90;;;;;;4936382;29;20058;-83
2023/01/25 03:01:37;;;;;;;5.53;4.32;;;2.80;99.90;;;;;;4968147;28;20447;-84
2023/01/25 03:04:04;;;;;;;6.00;4.35;;;2.80;99.90;;;;;;4968257;28;20085;-84
2023/01/25 03:06:31;;;;;;;6.60;4.97;;;2.80;99.90;;;;;;4967765;28;20051;-84
2023/01/25 03:08:58;;;;;;;6.10;4.40;;;2.70;99.90;;;;;;4982908;28;20062;-84
2023/01/25 03:11:25;;;;;;;5.35;3.88;;;2.70;99.90;;;;;;4967645;28;20470;-84
2023/01/25 03:13:52;;;;;;;4.47;3.90;;;2.70;99.90;;;;;;4968429;28;20094;-82
2023/01/25 03:16:19;;;;;;;6.75;4.70;;;2.70;99.90;;;;;;4936245;29;20150;-84
2023/01/25 03:18:45;;;;;;;5.32;4.43;;;2.70;99.90;;;;;;4967506;28;20094;-83
2023/01/25 03:21:14;;;;;;;5.97;4.50;;;2.70;99.90;;;;;;4951905;28;20090;-84
2023/01/25 03:23:41;;;;;;;5.90;4.53;;;2.70;99.90;;;;;;4935495;29;20077;-84
2023/01/25 03:26:09;;;;;;;4.80;4.10;;;2.70;99.90;;;;;;4983136;28;20066;-84
2023/01/25 03:28:36;;;;;;;6.03;4.55;;;2.70;99.90;;;;;;4965441;28;20058;-84
2023/01/25 03:31:03;;;;;;;5.47;4.28;;;2.80;99.90;;;;;;4951648;29;20043;-84
2023/01/25 03:33:30;;;;;;;5.53;4.28;;;2.80;99.90;;;;;;4966864;28;20705;-84
2023/01/25 03:35:57;;;;;;;5.70;4.90;;;2.80;99.90;;;;;;4934995;29;20036;-83
2023/01/25 03:38:24;;;;;;;6.47;4.90;;;2.80;99.90;;;;;;4933346;29;20066;-84
2023/01/25 03:40:51;;;;;;;6.03;4.70;;;2.80;99.90;;;;;;4935572;29;20077;-83
2023/01/25 03:43:17;;;;;;;6.38;4.95;;;2.80;99.90;;;;;;4950237;28;20454;-83
2023/01/25 03:45:44;;;;;;;8.68;6.93;;;2.80;99.90;;;;;;4935216;29;20043;-84
2023/01/25 03:48:11;;;;;;;7.68;6.00;;;2.80;99.90;;;;;;4963490;28;20085;-83
2023/01/25 03:50:38;;;;;;;9.35;7.32;;;2.70;99.90;;;;;;4966672;28;20074;-82
2023/01/25 03:53:09;;;;;;;10.93;8.38;;;2.70;99.90;;;;;;4966353;28;20102;-84
2023/01/25 03:55:35;;;;;;;13.23;9.57;;;2.70;99.90;;;;;;4950883;29;20070;-85
2023/01/25 03:58:02;;;;;;;12.25;9.15;;;2.60;99.90;;;;;;4982094;28;20047;-83
2023/01/25 04:00:29;;;;;;;11.43;9.13;;;2.60;99.90;;;;;;4934075;29;20085;-83
2023/01/25 04:02:55;;;;;;;12.45;9.15;;;2.60;99.90;;;;;;4966471;28;20160;-84
2023/01/25 04:05:22;;;;;;;10.73;8.27;;;2.60;99.90;;;;;;4980504;28;20459;-83
2023/01/25 04:07:49;;;;;;;10.60;8.43;;;2.50;99.90;;;;;;4918742;29;20047;-84
2023/01/25 04:10:16;;;;;;;12.02;8.35;;;2.50;99.90;;;;;;4933062;28;20077;-83
2023/01/25 04:12:43;;;;;;;9.68;7.90;;;2.60;99.90;;;;;;4932512;29;20053;-85
2023/01/25 04:15:10;;;;;;;9.07;7.32;;;2.50;99.90;;;;;;4933396;29;20058;-83
2023/01/25 04:17:37;;;;;;;8.93;6.85;;;2.50;99.90;;;;;;4949191;28;20499;-84
2023/01/25 04:20:04;;;;;;;10.68;7.40;;;2.50;99.90;;;;;;4951238;28;20143;-83
2023/01/25 04:22:31;;;;;;;10.88;8.73;;;2.50;99.90;;;;;;4950034;29;20047;-82
2023/01/25 04:24:58;;;;;;;10.77;8.63;;;2.50;99.90;;;;;;4964276;28;20147;-84
2023/01/25 04:27:24;;;;;;;9.77;7.47;;;2.50;99.90;;;;;;4950254;29;20047;-84
2023/01/25 04:29:51;;;;;;;9.70;7.22;;;2.50;99.90;;;;;;4982845;28;20051;-85
2023/01/25 04:32:18;;;;;;;10.00;7.28;;;2.50;99.90;;;;;;4966083;28;20284;-85
2023/01/25 04:34:45;;;;;;;8.63;6.68;;;2.40;99.90;;;;;;4935159;29;20071;-84
2023/01/25 04:37:12;;;;;;;8.40;6.65;;;2.40;99.90;;;;;;4976526;28;20079;-84
2023/01/25 04:39:39;;;;;;;7.97;6.43;;;2.40;99.90;;;;;;4966859;28;20557;-83
2023/01/25 04:42:05;;;;;;;9.90;7.93;;;2.40;99.90;;;;;;4949553;29;20174;-84
2023/01/25 04:44:32;;;;;;;11.60;7.45;;;2.40;99.90;;;;;;4951027;28;20062;-83
2023/01/25 04:46:59;;;;;;;10.90;7.22;;;2.40;99.90;;;;;;4951764;28;20047;-83
2023/01/25 04:49:26;;;;;;;9.48;6.60;;;2.30;99.90;;;;;;4965780;28;20043;-83
2023/01/25 04:51:53;;;;;;;13.10;9.35;;;2.40;99.90;;;;;;4966082;28;20069;-84
2023/01/25 04:54:20;;;;;;;13.55;9.35;;;2.30;99.90;;;;;;4966742;28;20616;-85
2023/01/25 04:56:46;;;;;;;10.90;9.07;;;2.30;99.90;;;;;;4965552;28;20047;-84
2023/01/25 04:59:13;;;;;;;10.07;8.45;;;2.30;99.90;;;;;;4950155;28;20146;-84
2023/01/25 05:01:40;;;;;;;10.18;8.10;;;2.30;99.90;;;;;;4934054;29;20106;-84
2023/01/25 05:04:08;;;;;;;9.35;6.63;;;2.30;99.90;;;;;;4981995;28;20043;-84
2023/01/25 05:06:34;;;;;;;8.68;6.72;;;2.30;99.90;;;;;;4947928;28;20078;-85
2023/01/25 05:09:01;;;;;;;6.72;5.32;;;2.40;99.90;;;;;;4932677;29;20043;-85
2023/01/25 05:11:28;;;;;;;7.30;5.80;;;2.40;99.90;;;;;;4948490;28;20130;-84
2023/01/25 05:13:55;;;;;;;8.95;7.05;;;2.40;99.90;;;;;;4980165;28;20047;-85
2023/01/25 05:16:22;;;;;;;8.10;5.63;;;2.40;99.90;;;;;;4948259;28;20206;-84
2023/01/25 05:18:49;;;;;;;7.45;5.32;;;2.40;99.90;;;;;;4949000;28;20054;-84
2023/01/25 05:24:01;;;;;;;7.93;5.68;;;2.40;99.90;;;;;;4973976;28;20065;-85
2023/01/25 05:29:14;;;;;;;8.70;6.57;;;2.40;99.90;;;;;;4961910;28;20075;-85
2023/01/25 05:31:40;;;;;;;9.00;6.47;;;2.40;99.90;;;;;;4964140;28;20545;-85
2023/01/25 05:34:08;;;;;;;6.45;5.32;;;2.40;99.90;;;;;;4932420;29;20138;-85
2023/01/25 05:36:35;;;;;;;8.32;6.63;;;2.40;99.90;;;;;;4962670;28;20039;-85
2023/01/25 05:39:05;;;;;;;10.27;8.13;;;2.40;99.90;;;;;;4949139;29;20051;-85
2023/01/25 05:41:32;;;;;;;11.88;8.40;;;2.40;99.90;;;;;;4932445;28;20047;-85
2023/01/25 05:43:59;;;;;;;9.55;7.50;;;2.40;99.90;;;;;;4931254;29;20043;-85
2023/01/25 05:46:26;;;;;;;8.88;6.78;;;2.30;99.90;;;;;;4947494;29;20055;-83
2023/01/25 05:48:53;;;;;;;9.85;7.70;;;2.30;99.90;;;;;;4959983;28;20063;-85
2023/01/25 05:51:20;;;;;;;8.70;7.05;;;2.30;99.90;;;;;;4929841;28;20047;-83
2023/01/25 05:53:47;;;;;;;10.95;8.52;;;2.30;99.90;;;;;;4944111;29;20138;-86
2023/01/25 05:56:13;;;;;;;11.85;8.85;;;2.30;99.90;;;;;;4929688;29;20067;-85
2023/01/25 05:58:40;;;;;;;10.93;8.75;;;2.30;99.90;;;;;;4929490;28;20069;-85
2023/01/25 06:01:07;;;;;;;11.70;9.38;;;2.20;99.90;;;;;;4945541;29;20055;-86
2023/01/25 06:03:34;;;;;;;13.60;10.18;;;2.20;99.90;;;;;;4942364;28;20051;-85
2023/01/25 06:06:01;;;;;;;11.15;8.98;;;2.20;99.90;;;;;;4913811;29;20051;-86
2023/01/25 06:08:31;;;;;;;13.38;9.65;;;2.20;99.90;;;;;;4965138;28;20153;-85
2023/01/25 06:10:58;;;;;;;13.65;10.18;;;2.20;99.90;;;;;;4966081;28;20062;-85
2023/01/25 06:13:25;;;;;;;15.40;10.52;;;2.20;99.90;;;;;;4980845;28;20574;-86
2023/01/25 06:15:55;;;;;;;12.68;10.45;;;2.20;99.90;;;;;;4932471;28;20129;-84
2023/01/25 06:18:23;;;;;;;13.23;9.38;;;2.20;99.90;;;;;;4951045;29;20419;-84
2023/01/25 06:20:50;;;;;;;12.95;10.10;;;2.20;99.90;;;;;;4966925;28;20043;-86
2023/01/25 06:23:17;;;;;;;12.07;9.63;;;2.20;99.90;;;;;;4950542;29;20137;-84
2023/01/25 06:25:44;;;;;;;14.35;10.30;;;2.20;99.90;;;;;;4961195;28;20074;-86
2023/01/25 06:28:11;;;;;;;13.05;9.50;;;2.20;99.90;;;;;;4964767;28;20054;-85
2023/01/25 06:30:37;;;;;;;10.90;8.70;;;2.20;99.90;;;;;;4966411;28;20081;-85
2023/01/25 06:33:04;;;;;;;11.90;9.48;;;2.20;99.90;;;;;;4983764;28;20053;-86
2023/01/25 06:35:31;;;;;;;12.65;9.45;;;2.20;99.90;;;;;;4949175;29;20077;-85
2023/01/25 06:37:58;;;;;;;10.75;8.38;;;2.20;99.90;;;;;;4962564;28;20043;-85
2023/01/25 06:40:26;;;;;;;11.82;8.80;;;2.20;99.90;;;;;;4963388;28;20109;-85
2023/01/25 06:42:53;;;;;;;10.88;8.32;;;2.20;99.90;;;;;;4931199;29;20641;-86
2023/01/25 06:45:20;;;;;;;10.23;7.85;;;2.20;99.90;;;;;;4917027;29;20433;-83
2023/01/25 06:47:48;;;;;;;10.30;8.63;;;2.30;99.90;;;;;;4941525;29;20476;-86
2023/01/25 06:50:14;;;;;;;11.57;7.72;;;2.30;99.90;;;;;;4948532;29;20051;-86
2023/01/25 06:52:41;;;;;;;14.07;10.68;;;2.30;99.90;;;;;;4950813;28;20497;-86
2023/01/25 06:55:12;;;;;;;20.25;14.85;;;2.20;99.90;;;;;;4948066;28;20414;-87
2023/01/25 06:57:39;;;;;;;19.90;15.80;;;2.20;99.90;;;;;;4963143;28;20059;-85
2023/01/25 07:00:07;;;;;;;18.33;13.60;;;2.10;99.90;;;;;;4959094;28;20071;-86
2023/01/25 07:02:35;;;;;;;17.75;13.18;;;2.10;99.90;;;;;;4962352;28;20074;-82
2023/01/25 07:05:03;;;;;;;16.50;12.90;;;2.10;99.90;;;;;;4942142;29;20051;-81
2023/01/25 07:07:29;;;;;;;14.77;11.10;;;2.10;99.90;;;;;;4947663;28;20051;-82
2023/01/25 07:09:59;;;;;;;20.40;14.27;;;2.10;99.90;;;;;;4949928;28;20447;-81
2023/01/25 07:12:29;;;;;;;18.70;13.95;;;2.10;99.90;;;;;;4952960;28;20051;-81
2023/01/25 07:14:56;;;;;;;22.23;14.07;;;2.10;99.90;;;;;;4924100;29;20066;-81
2023/01/25 07:17:23;;;;;;;17.15;12.40;;;2.10;99.90;;;;;;4923610;28;20155;-81
2023/01/25 07:19:50;;;;;;;17.27;11.95;;;2.00;99.90;;;;;;4906251;29;20051;-78
2023/01/25 07:22:16;;;;;;;13.93;10.80;;;2.00;99.90;;;;;;4967564;28;20059;-82
2023/01/25 07:24:48;;;;;;;14.65;11.18;;;2.00;99.90;;;;;;4943179;28;20054;-82
2023/01/25 07:27:16;;;;;;;13.95;10.63;;;2.00;99.90;;;;;;4923808;29;20130;-82
2023/01/25 07:29:43;;;;;;;18.20;12.93;;;2.00;99.90;;;;;;4954040;28;20447;-82
2023/01/25 07:32:13;;;;;;;14.27;10.77;;;2.00;99.90;;;;;;4952677;28;20515;-82
2023/01/25 07:34:40;;;;;;;16.83;12.77;;;2.00;99.90;;;;;;4969169;28;20510;-81
2023/01/25 07:37:08;;;;;;;16.88;11.20;;;2.00;99.90;;;;;;4949047;28;20047;-82
2023/01/25 07:39:35;;;;;;;13.50;9.93;;;2.00;99.90;;;;;;4953677;28;20062;-81
2023/01/25 07:42:02;;;;;;;15.18;11.38;;;2.00;99.90;;;;;;4932267;28;20197;-81
2023/01/25 07:44:29;;;;;;;18.05;12.90;;;2.00;99.90;;;;;;4969865;28;20106;-82
2023/01/25 07:46:56;;;;;;;16.58;12.27;;;2.00;99.90;;;;;;4937987;29;20055;-82
2023/01/25 07:49:22;;;;;;;14.68;10.35;;;2.00;99.90;;;;;;4906623;29;20063;-82
2023/01/25 07:51:49;;;;;;;20.15;14.55;;;2.00;99.90;;;;;;4937628;29;20043;-81
2023/01/25 07:54:16;;;;;;;18.50;12.75;;;2.00;99.90;;;;;;4970230;28;20055;-82
2023/01/25 07:56:43;;;;;;;19.17;14.07;;;2.00;99.90;;;;;;4954317;28;20534;-82
2023/01/25 07:59:10;;;;;;;20.55;14.25;;;2.00;99.90;;;;;;4935707;29;20203;-82
2023/01/25 08:01:38;;;;;;;18.30;13.05;;;2.00;99.90;;;;;;4950914;28;20062;-81
2023/01/25 08:04:05;;;;;;;19.10;13.48;;;2.00;99.90;;;;;;4938884;29;20575;-82
2023/01/25 08:06:34;;;;;;;19.92;14.57;;;1.90;99.90;;;;;;4936007;28;20161;-81
2023/01/25 08:09:07;;;;;;;16.40;12.13;;;2.00;99.90;;;;;;4968690;28;20053;-82
2023/01/25 08:11:34;;;;;;;22.17;15.20;;;2.00;99.90;;;;;;4952303;28;20554;-82
2023/01/25 08:14:02;;;;;;;19.63;14.38;;;2.00;99.90;;;;;;4922370;29;20051;-82
2023/01/25 08:16:29;;;;;;;20.23;13.27;;;1.90;99.90;;;;;;4954339;28;20447;-82
2023/01/25 08:18:58;;;;;;;18.60;12.77;;;1.90;99.90;;;;;;4953758;28;20165;-82
2023/01/25 08:21:28;;;;;;;16.45;12.18;;;2.00;99.90;;;;;;4953321;28;20070;-81
2023/01/25 08:23:59;;;;;;;16.45;11.85;;;2.00;99.90;;;;;;4968962;28;20130;-82
2023/01/25 08:26:27;;;;;;;18.55;11.60;;;1.90;99.90;;;;;;4937536;29;20058;-82
2023/01/25 08:28:54;;;;;;;15.27;11.07;;;1.90;99.90;;;;;;4954118;28;20315;-82
2023/01/25 08:31:23;;;;;;;15.77;10.38;;;1.90;99.90;;;;;;4947209;28;20073;-82
2023/01/25 08:33:50;;;;;;;15.90;11.10;;;1.90;99.90;;;;;;4950478;28;20055;-82
2023/01/25 08:36:17;;;;;;;14.80;10.57;;;1.90;99.90;;;;;;4921656;29;20138;-82
2023/01/25 08:38:45;;;;;;;12.50;9.82;;;1.90;99.90;;;;;;4922836;28;20059;-83
2023/01/25 08:41:14;;;;;;;14.75;10.02;;;2.00;99.90;;;;;;4951618;28;20134;-80
2023/01/25 08:43:42;;;;;;;15.43;10.93;;;2.00;99.90;;;;;;4953659;28;20109;-82
2023/01/25 08:46:09;;;;;;;16.63;11.88;;;1.90;99.90;;;;;;4954577;28;20047;-81
2023/01/25 08:48:36;;;;;;;19.13;13.05;;;1.90;99.90;;;;;;4953127;28;20566;-82
2023/01/25 08:51:03;;;;;;;22.58;13.30;;;1.90;99.90;;;;;;4953889;28;20441;-82
2023/01/25 08:53:31;;;;;;;17.05;11.07;;;1.90;99.90;;;;;;4969135;28;20154;-82
2023/01/25 08:56:02;;;;;;;19.38;11.05;;;1.90;99.90;;;;;;4953875;28;20168;-82
2023/01/25 08:58:30;;;;;;;17.48;11.05;;;2.00;99.90;;;;;;4936670;29;20502;-81
2023/01/25 09:01:05;;;;;;;22.00;12.80;;;2.00;99.90;;;;;;4970029;28;20137;-81
2023/01/25 09:03:34;;;;;;;16.77;11.65;;;2.00;99.90;;;;;;4952905;28;20142;-82
2023/01/25 09:06:01;;;;;;;15.93;10.88;;;2.00;99.90;;;;;;4953597;28;20345;-82
2023/01/25 09:08:28;;;;;;;19.67;13.50;;;2.00;99.90;;;;;;4969695;28;20424;-82
2023/01/25 09:10:59;;;;;;;17.05;10.98;;;2.00;99.90;;;;;;4953760;28;20051;-82
2023/01/25 09:13:25;;;;;;;19.60;12.65;;;2.00;99.90;;;;;;4952677;28;20066;-82
2023/01/25 09:15:57;;;;;;;16.60;12.10;;;2.00;99.90;;;;;;4954144;28;20291;-82
2023/01/25 09:18:24;;;;;;;16.98;11.00;;;2.00;99.90;;;;;;4953714;28;20507;-82
2023/01/25 09:20:51;;;;;;;15.82;11.30;;;2.00;99.90;;;;;;4954230;28;20054;-82
2023/01/25 09:23:21;;;;;;;22.25;13.43;;;2.10;99.90;;;;;;4953264;28;20134;-82
2023/01/25 09:25:54;;;;;;;20.35;13.05;;;2.00;99.90;;;;;;4933856;28;20087;-82
2023/01/25 09:28:21;;;;;;;21.98;13.68;;;2.00;99.90;;;;;;4949508;28;20148;-82
2023/01/25 09:30:56;;;;;;;24.80;16.17;;;2.00;99.90;;;;;;4967953;28;20051;-83
2023/01/25 09:33:43;;;;;;;24.35;17.92;;;1.90;99.90;;;;;;4937855;28;20050;-83
2023/01/25 09:36:10;;;;;;;28.60;18.63;;;1.80;99.90;;;;;;4921819;28;20055;-82
2023/01/25 09:38:37;;;;;;;24.75;15.95;;;1.80;99.90;;;;;;4956330;28;20058;-82
2023/01/25 09:41:03;;;;;;;25.10;15.40;;;1.80;99.90;;;;;;4938057;28;20411;-82
2023/01/25 09:43:59;;;;;;;21.02;14.45;;;1.80;99.90;;;;;;4941940;29;20244;-82
2023/01/25 09:46:57;;;;;;;27.70;16.05;;;1.80;99.90;;;;;;4964628;28;20055;-82
2023/01/25 09:49:43;;;;;;;26.67;16.70;;;1.70;99.90;;;;;;4957348;28;20062;-83
2023/01/25 09:52:36;;;;;;;22.30;14.52;;;1.60;99.90;;;;;;4956749;28;20059;-82
2023/01/25 09:55:11;;;;;;;20.27;12.73;;;1.70;99.90;;;;;;4943877;28;20055;-83
2023/01/25 09:57:38;;;;;;;18.15;10.50;;;1.80;99.90;;;;;;4955860;28;20047;-82
2023/01/25 10:00:16;;;;;;;14.48;9.93;;;1.90;99.90;;;;;;4956459;28;20513;-82
2023/01/25 10:03:04;;;;;;;14.23;9.55;;;2.00;99.90;;;;;;4939273;28;20051;-82
2023/01/25 10:05:36;;;;;;;17.30;9.05;;;2.10;99.90;;;;;;4956378;28;20555;-83
2023/01/25 10:08:29;;;;;;;13.05;8.02;;;2.10;99.90;;;;;;4956355;28;20051;-82
2023/01/25 10:11:13;;;;;;;11.20;7.32;;;2.20;99.90;;;;;;4931486;28;20401;-81
2023/01/25 10:13:39;;;;;;;11.55;8.20;;;2.30;99.90;;;;;;4956502;28;20051;-81
2023/01/25 10:16:21;;;;;;;12.68;8.18;;;2.40;99.90;;;;;;4973047;28;20051;-82
2023/01/25 10:19:13;;;;;;;12.02;7.47;;;2.50;99.90;;;;;;4955820;28;20213;-82
2023/01/25 10:21:55;;;;;;;12.80;7.95;;;2.50;99.90;;;;;;4941588;29;20430;-82
2023/01/25 10:24:50;;;;;;;11.68;8.40;;;2.50;99.90;;;;;;4954449;28;20066;-82
2023/01/25 10:27:20;;;;;;;11.00;6.88;;;2.50;99.90;;;;;;4942121;29;20515;-83
2023/01/25 10:29:47;;;;;;;11.07;7.30;;;2.60;99.90;;;;;;4974328;28;20451;-82
2023/01/25 10:32:18;;;;;;;10.20;6.50;;;2.70;99.90;;;;;;4964884;28;20059;-82
2023/01/25 10:34:47;;;;;;;8.93;6.65;;;2.80;99.90;;;;;;4979706;28;20059;-81
2023/01/25 10:37:26;;;;;;;11.23;7.18;;;2.80;99.90;;;;;;4964683;28;20128;-82
2023/01/25 10:40:11;;;;;;;10.93;7.60;;;2.70;99.90;;;;;;4956702;28;20842;-81
2023/01/25 10:42:47;;;;;;;10.05;6.47;;;2.80;99.90;;;;;;4941267;28;20442;-75
2023/01/25 10:45:15;;;;;;;7.85;5.60;;;3.00;99.90;;;;;;4955743;28;20051;-77
2023/01/25 10:47:44;;;;;;;9.75;6.20;;;3.10;99.90;;;;;;4955290;28;20208;-76
2023/01/25 10:50:37;;;;;;;8.35;5.63;;;3.20;99.90;;;;;;4955508;28;20063;-76
2023/01/25 10:53:04;;;;;;;8.65;5.20;;;3.40;99.90;;;;;;4940247;28;20083;-76
2023/01/25 10:55:30;;;;;;;8.68;4.80;;;3.50;99.90;;;;;;4956131;28;20058;-76
2023/01/25 10:57:57;;;;;;;7.65;5.15;;;3.60;99.90;;;;;;4985073;28;20058;-76
2023/01/25 11:00:37;;;;;;;6.80;4.40;;;3.70;99.90;;;;;;4978214;28;20059;-76
2023/01/25 11:03:04;;;;;;;6.70;3.78;;;3.80;99.90;;;;;;4955684;28;20077;-76
2023/01/25 11:05:38;;;;;;;7.25;4.32;;;3.90;99.90;;;;;;4971142;28;20174;-76
2023/01/25 11:08:23;;;;;;;7.22;4.28;;;4.00;99.90;;;;;;4971767;28;20067;-76
2023/01/25 11:10:50;;;;;;;6.00;3.83;;;4.10;99.90;;;;;;4954850;28;20067;-76
2023/01/25 11:13:18;;;;;;;6.35;3.85;;;4.20;99.90;;;;;;4954582;28;20504;-76
2023/01/25 11:15:46;;;;;;;5.32;3.90;;;4.30;99.90;;;;;;4939526;29;20448;-76
2023/01/25 11:18:24;;;;;;;5.13;3.58;;;4.40;99.90;;;;;;4939265;29;20536;-76
2023/01/25 11:21:06;;;;;;;4.20;2.97;;;4.50;99.90;;;;;;4955166;28;20078;-76
2023/01/25 11:23:33;;;;;;;4.38;3.00;;;4.60;99.90;;;;;;4954076;28;20610;-76
2023/01/25 11:26:13;;;;;;;5.55;3.55;;;4.70;99.90;;;;;;4955389;28;20255;-76
2023/01/25 11:28:40;;;;;;;6.70;4.07;;;4.80;99.90;;;;;;4971219;28;20519;-76
2023/01/25 11:31:09;;;;;;;5.85;4.18;;;4.80;99.90;;;;;;4955598;28;20047;-76
2023/01/25 11:33:36;;;;;;;4.80;3.67;;;4.90;99.90;;;;;;4954416;28;20082;-76
2023/01/25 11:36:24;;;;;;;4.55;3.17;;;4.90;99.90;;;;;;4970091;28;20058;-75
2023/01/25 11:39:04;;;;;;;5.10;3.17;;;5.00;99.90;;;;;;4939336;29;20146;-76
2023/01/25 11:41:54;;;;;;;4.55;2.83;;;5.10;99.90;;;;;;4934753;29;20134;-75
2023/01/25 11:44:31;;;;;;;3.83;2.60;;;5.30;99.90;;;;;;4938976;29;20051;-76
2023/01/25 11:47:28;;;;;;;3.83;2.58;;;5.30;99.90;;;;;;4938817;29;20070;-75
2023/01/25 11:50:01;;;;;;;4.15;2.65;;;5.30;99.90;;;;;;4938505;29;20059;-75
2023/01/25 11:52:57;;;;;;;3.95;2.45;;;5.40;99.90;;;;;;4939734;29;20111;-76
2023/01/25 11:55:26;;;;;;;3.63;2.63;;;5.50;99.90;;;;;;4959622;28;20043;-75
2023/01/25 11:58:31;;;;;;;3.95;2.67;;;5.60;99.90;;;;;;4938377;29;20055;-75
2023/01/25 12:01:16;;;;;;;3.53;2.28;;;5.80;99.90;;;;;;4965653;28;20051;-75
2023/01/25 12:04:24;;;;;;;3.17;2.15;;;5.90;99.90;;;;;;4969318;28;20113;-76
2023/01/25 12:07:13;;;;;;;3.60;2.15;;;6.10;99.90;;;;;;4937812;28;20361;-75
2023/01/25 12:09:52;;;;;;;4.38;2.53;;;6.10;99.90;;;;;;4970261;28;20126;-75
2023/01/25 12:12:27;;;;;;;3.85;2.33;;;5.90;99.90;;;;;;4938909;29;20085;-76
2023/01/25 12:15:07;;;;;;;2.97;2.05;;;5.90;99.90;;;;;;4940319;29;20050;-75
2023/01/25 12:17:54;;;;;;;3.28;2.08;;;6.00;99.90;;;;;;4967791;28;20145;-76
2023/01/25 12:20:50;;;;;;;3.15;2.45;;;6.00;99.90;;;;;;4970500;28;20530;-76
2023/01/25 12:23:38;;;;;;;5.05;3.20;;;5.80;99.90;;;;;;4945444;28;20087;-75
2023/01/25 12:26:11;;;;;;;4.53;3.28;;;5.60;99.90;;;;;;4938990;29;20071;-75
2023/01/25 12:29:12;;;;;;;4.18;2.45;;;5.70;99.90;;;;;;4962014;28;20055;-76
2023/01/25 12:31:54;;;;;;;3.72;2.47;;;5.70;99.90;;;;;;4962380;28;20130;-75
2023/01/25 12:34:23;;;;;;;3.60;2.47;;;5.80;99.90;;;;;;4967353;28;20063;-76
2023/01/25 12:36:50;;;;;;;3.22;2.17;;;5.80;99.90;;;;;;4948416;28;20491;-76
2023/01/25 12:39:17;;;;;;;5.07;2.90;;;5.90;99.90;;;;;;4937564;29;20495;-75
2023/01/25 12:41:56;;;;;;;4.20;3.22;;;5.80;99.90;;;;;;4931383;29;20386;-75
2023/01/25 12:44:38;;;;;;;5.65;3.10;;;5.80;99.90;;;;;;4966793;28;20103;-76
2023/01/25 12:47:21;;;;;;;4.30;2.70;;;5.80;99.90;;;;;;4947763;28;20079;-76
2023/01/25 12:49:58;;;;;;;4.78;3.03;;;5.70;99.90;;;;;;4960805;28;20305;-76
2023/01/25 12:52:31;;;;;;;4.80;2.85;;;5.70;99.90;;;;;;4946784;28;20055;-76
2023/01/25 12:55:03;;;;;;;5.72;3.63;;;5.60;99.90;;;;;;4966459;28;20879;-76
2023/01/25 12:57:38;;;;;;;4.63;2.72;;;5.70;99.90;;;;;;4930402;29;20055;-76
2023/01/25 13:00:27;;;;;;;4.30;2.97;;;5.70;99.90;;;;;;4965156;28;20047;-76
2023/01/25 13:03:08;;;;;;;4.07;2.70;;;5.70;99.90;;;;;;4968160;28;20055;-76
2023/01/25 13:05:59;;;;;;;5.55;3.63;;;5.80;99.90;;;;;;4967342;28;20832;-78
2023/01/25 13:08:33;;;;;;;6.38;4.32;;;5.70;99.90;;;;;;4950692;28;20066;-75
2023/01/25 13:11:38;;;;;;;6.05;4.00;;;5.70;99.90;;;;;;4966441;28;20134;-76
2023/01/25 13:14:24;;;;;;;6.35;3.83;;;5.60;99.90;;;;;;4947377;28;20062;-75
2023/01/25 13:16:52;;;;;;;6.45;3.83;;;5.50;99.90;;;;;;4940162;28;20051;-75
2023/01/25 13:19:35;;;;;;;9.15;5.82;;;5.50;99.90;;;;;;4955244;28;20153;-75
2023/01/25 13:22:02;;;;;;;9.18;5.68;;;5.30;99.90;;;;;;4939137;29;20051;-75
2023/01/25 13:24:30;;;;;;;13.05;8.38;;;5.30;99.90;;;;;;4955145;28;20074;-76
2023/01/25 13:27:02;;;;;;;9.73;6.55;;;5.10;99.90;;;;;;4938686;29;20047;-75
2023/01/25 13:29:38;;;;;;;9.15;6.25;;;5.10;99.90;;;;;;4956869;28;20094;-75
2023/01/25 13:32:12;;;;;;;11.18;8.05;;;5.00;99.90;;;;;;4938137;29;20158;-76
2023/01/25 13:34:43;;;;;;;10.77;7.55;;;5.00;99.90;;;;;;4950969;28;20074;-76
2023/01/25 13:37:22;;;;;;;10.73;8.05;;;5.00;99.90;;;;;;4936990;28;20293;-76
2023/01/25 13:39:50;;;;;;;12.93;8.60;;;5.00;99.90;;;;;;4947304;28;20525;-76
2023/01/25 13:42:22;;;;;;;12.13;7.60;;;5.00;99.90;;;;;;4956147;28;20059;-76
2023/01/25 13:44:53;;;;;;;9.80;6.45;;;5.00;99.90;;;;;;4956528;28;20313;-76
2023/01/25 13:47:26;;;;;;;9.93;6.35;;;5.00;99.90;;;;;;4955917;28;20059;-76
2023/01/25 13:50:20;;;;;;;10.85;7.13;;;4.90;99.90;;;;;;4956349;28;20082;-76
2023/01/25 13:52:59;;;;;;;;;;;4.80;99.90;;;;;;4954293;28;20059;-76
2023/01/25 13:55:26;;;;;;;11.00;6.22;;;4.80;99.90;;;;;;4941396;28;19922;-76
2023/01/25 13:58:13;;;;;;;10.35;6.95;;;4.70;99.90;;;;;;4956491;28;20380;-76
2023/01/25 14:01:05;;;;;;;10.82;6.18;;;4.80;99.90;;;;;;4936028;28;20819;-76
2023/01/25 14:03:40;;;;;;;8.70;6.03;;;4.80;99.90;;;;;;4967940;28;20051;-77
2023/01/25 14:06:13;;;;;;;8.07;5.30;;;4.80;99.90;;;;;;4940424;29;20059;-78
2023/01/25 14:08:40;;;;;;;7.57;4.85;;;4.80;99.90;;;;;;4940321;28;20178;-77
2023/01/25 14:11:06;;;;;;;7.93;5.65;;;4.80;99.90;;;;;;4940747;29;20059;-77
2023/01/25 14:13:33;;;;;;;7.53;5.18;;;4.80;99.90;;;;;;4939725;29;20098;-77
2023/01/25 14:16:00;;;;;;;7.68;5.50;;;4.80;99.90;;;;;;4972416;28;20051;-77